sensor_id;sensor_type;location;lat;lon;timestamp;P1;durP1;ratioP1;P2;durP2;ratioP2
3261;SDS011;1643;47.746;9.000;2024-02-23T00:00:10;0.60;;;0.60;;
3261;SDS011;1643;47.746;9.000;2024-02-23T00:02:37;0.70;;;0.60;;
3261;SDS011;1643;47.746;9.000;2024-02-23T00:05:03;0.80;;;0.80;;
3261;SDS011;1643;47.746;9.000;2024-02-23T00:07:29;0.60;;;0.60;;
3261;SDS011;1643;47.746;9.000;2024-02-23T00:09:55;0.60;;;0.60;;
3261;SDS011;1643;47.746;9.000;2024-02-23T00:12:20;0.60;;;0.60;;
3261;SDS011;1643;47.746;9.000;2024-02-23T00:14:46;0.53;;;0.50;;
3261;SDS011;1643;47.746;9.000;2024-02-23T00:17:12;0.60;;;0.60;;
3261;SDS011;1643;47.746;9.000;2024-02-23T00:19:37;0.70;;;0.60;;
3261;SDS011;1643;47.746;9.000;2024-02-23T00:22:03;0.60;;;0.60;;
3261;SDS011;1643;47.746;9.000;2024-02-23T00:24:29;0.60;;;0.60;;
3261;SDS011;1643;47.746;9.000;2024-02-23T00:26:54;0.60;;;0.60;;
3261;SDS011;1643;47.746;9.000;2024-02-23T00:29:20;0.60;;;0.60;;
3261;SDS011;1643;47.746;9.000;2024-02-23T00:31:46;0.80;;;0.60;;
3261;SDS011;1643;47.746;9.000;2024-02-23T00:34:13;0.60;;;0.60;;
3261;SDS011;1643;47.746;9.000;2024-02-23T00:36:39;0.60;;;0.60;;
3261;SDS011;1643;47.746;9.000;2024-02-23T00:39:06;0.70;;;0.60;;
3261;SDS011;1643;47.746;9.000;2024-02-23T00:41:33;0.60;;;0.60;;
3261;SDS011;1643;47.746;9.000;2024-02-23T00:43:59;0.60;;;0.50;;
3261;SDS011;1643;47.746;9.000;2024-02-23T00:46:24;1.23;;;0.70;;
3261;SDS011;1643;47.746;9.000;2024-02-23T00:48:50;0.60;;;0.60;;
3261;SDS011;1643;47.746;9.000;2024-02-23T00:51:16;0.60;;;0.60;;
3261;SDS011;1643;47.746;9.000;2024-02-23T00:53:41;0.63;;;0.60;;
3261;SDS011;1643;47.746;9.000;2024-02-23T00:56:07;0.80;;;0.60;;
3261;SDS011;1643;47.746;9.000;2024-02-23T00:58:33;1.00;;;0.60;;
3261;SDS011;1643;47.746;9.000;2024-02-23T01:00:59;0.63;;;0.63;;
3261;SDS011;1643;47.746;9.000;2024-02-23T01:03:24;1.50;;;0.70;;
3261;SDS011;1643;47.746;9.000;2024-02-23T01:05:50;0.73;;;0.67;;
3261;SDS011;1643;47.746;9.000;2024-02-23T01:08:16;0.70;;;0.70;;
3261;SDS011;1643;47.746;9.000;2024-02-23T01:10:41;0.70;;;0.70;;
3261;SDS011;1643;47.746;9.000;2024-02-23T01:13:07;0.60;;;0.60;;
3261;SDS011;1643;47.746;9.000;2024-02-23T01:15:32;1.80;;;0.70;;
3261;SDS011;1643;47.746;9.000;2024-02-23T01:17:59;0.70;;;0.70;;
3261;SDS011;1643;47.746;9.000;2024-02-23T01:20:24;0.60;;;0.60;;
3261;SDS011;1643;47.746;9.000;2024-02-23T01:22:50;0.70;;;0.70;;
3261;SDS011;1643;47.746;9.000;2024-02-23T01:25:16;1.83;;;0.80;;
3261;SDS011;1643;47.746;9.000;2024-02-23T01:27:42;1.00;;;0.70;;
3261;SDS011;1643;47.746;9.000;2024-02-23T01:30:09;0.63;;;0.60;;
3261;SDS011;1643;47.746;9.000;2024-02-23T01:32:35;0.83;;;0.60;;
3261;SDS011;1643;47.746;9.000;2024-02-23T01:35:03;0.70;;;0.60;;
3261;SDS011;1643;47.746;9.000;2024-02-23T01:37:33;0.60;;;0.60;;
3261;SDS011;1643;47.746;9.000;2024-02-23T01:39:59;0.80;;;0.80;;
3261;SDS011;1643;47.746;9.000;2024-02-23T01:42:25;0.60;;;0.60;;
3261;SDS011;1643;47.746;9.000;2024-02-23T01:44:51;0.70;;;0.60;;
3261;SDS011;1643;47.746;9.000;2024-02-23T01:47:17;0.70;;;0.70;;
3261;SDS011;1643;47.746;9.000;2024-02-23T01:49:44;0.60;;;0.50;;
3261;SDS011;1643;47.746;9.000;2024-02-23T01:52:11;0.60;;;0.60;;
3261;SDS011;1643;47.746;9.000;2024-02-23T01:54:38;0.60;;;0.60;;
3261;SDS011;1643;47.746;9.000;2024-02-23T01:57:07;1.53;;;0.80;;
3261;SDS011;1643;47.746;9.000;2024-02-23T01:59:35;0.60;;;0.60;;
3261;SDS011;1643;47.746;9.000;2024-02-23T02:02:04;0.60;;;0.60;;
3261;SDS011;1643;47.746;9.000;2024-02-23T02:04:30;0.90;;;0.60;;
3261;SDS011;1643;47.746;9.000;2024-02-23T02:06:56;1.70;;;0.60;;
3261;SDS011;1643;47.746;9.000;2024-02-23T02:09:24;0.60;;;0.60;;
3261;SDS011;1643;47.746;9.000;2024-02-23T02:11:50;0.83;;;0.70;;
3261;SDS011;1643;47.746;9.000;2024-02-23T02:14:16;0.70;;;0.60;;
3261;SDS011;1643;47.746;9.000;2024-02-23T02:16:42;0.60;;;0.60;;
3261;SDS011;1643;47.746;9.000;2024-02-23T02:19:11;2.60;;;0.90;;
3261;SDS011;1643;47.746;9.000;2024-02-23T02:21:38;0.70;;;0.60;;
3261;SDS011;1643;47.746;9.000;2024-02-23T02:24:04;0.60;;;0.50;;
3261;SDS011;1643;47.746;9.000;2024-02-23T02:26:30;1.20;;;0.87;;
3261;SDS011;1643;47.746;9.000;2024-02-23T02:28:56;0.90;;;0.67;;
3261;SDS011;1643;47.746;9.000;2024-02-23T02:31:21;2.97;;;0.70;;
3261;SDS011;1643;47.746;9.000;2024-02-23T02:33:47;0.80;;;0.70;;
3261;SDS011;1643;47.746;9.000;2024-02-23T02:36:13;0.70;;;0.70;;
3261;SDS011;1643;47.746;9.000;2024-02-23T02:38:38;0.77;;;0.70;;
3261;SDS011;1643;47.746;9.000;2024-02-23T02:41:04;1.57;;;0.90;;
3261;SDS011;1643;47.746;9.000;2024-02-23T02:43:30;1.00;;;0.70;;
3261;SDS011;1643;47.746;9.000;2024-02-23T02:45:56;2.07;;;0.87;;
3261;SDS011;1643;47.746;9.000;2024-02-23T02:48:22;0.87;;;0.63;;
3261;SDS011;1643;47.746;9.000;2024-02-23T02:50:49;0.80;;;0.70;;
3261;SDS011;1643;47.746;9.000;2024-02-23T02:53:16;1.40;;;0.70;;
3261;SDS011;1643;47.746;9.000;2024-02-23T02:55:42;0.70;;;0.60;;
3261;SDS011;1643;47.746;9.000;2024-02-23T02:58:08;1.67;;;1.20;;
3261;SDS011;1643;47.746;9.000;2024-02-23T03:00:34;0.70;;;0.70;;
3261;SDS011;1643;47.746;9.000;2024-02-23T03:03:00;3.30;;;0.77;;
3261;SDS011;1643;47.746;9.000;2024-02-23T03:05:25;0.70;;;0.70;;
3261;SDS011;1643;47.746;9.000;2024-02-23T03:07:51;1.93;;;0.80;;
3261;SDS011;1643;47.746;9.000;2024-02-23T03:10:17;0.70;;;0.70;;
3261;SDS011;1643;47.746;9.000;2024-02-23T03:12:42;1.47;;;0.73;;
3261;SDS011;1643;47.746;9.000;2024-02-23T03:15:08;0.60;;;0.60;;
3261;SDS011;1643;47.746;9.000;2024-02-23T03:17:37;2.00;;;0.77;;
3261;SDS011;1643;47.746;9.000;2024-02-23T03:20:03;0.70;;;0.70;;
3261;SDS011;1643;47.746;9.000;2024-02-23T03:22:36;2.30;;;0.83;;
3261;SDS011;1643;47.746;9.000;2024-02-23T03:25:03;2.10;;;0.70;;
3261;SDS011;1643;47.746;9.000;2024-02-23T03:27:33;2.70;;;0.80;;
3261;SDS011;1643;47.746;9.000;2024-02-23T03:30:01;0.70;;;0.70;;
3261;SDS011;1643;47.746;9.000;2024-02-23T03:32:30;1.10;;;0.80;;
3261;SDS011;1643;47.746;9.000;2024-02-23T03:35:01;0.80;;;0.60;;
3261;SDS011;1643;47.746;9.000;2024-02-23T03:37:28;0.70;;;0.70;;
3261;SDS011;1643;47.746;9.000;2024-02-23T03:39:54;0.70;;;0.60;;
3261;SDS011;1643;47.746;9.000;2024-02-23T03:42:19;0.97;;;0.90;;
3261;SDS011;1643;47.746;9.000;2024-02-23T03:44:45;0.70;;;0.60;;
3261;SDS011;1643;47.746;9.000;2024-02-23T03:47:10;0.80;;;0.70;;
3261;SDS011;1643;47.746;9.000;2024-02-23T03:49:37;0.67;;;0.67;;
3261;SDS011;1643;47.746;9.000;2024-02-23T03:52:03;1.10;;;0.90;;
3261;SDS011;1643;47.746;9.000;2024-02-23T03:54:29;1.00;;;0.80;;
3261;SDS011;1643;47.746;9.000;2024-02-23T03:56:56;0.70;;;0.70;;
3261;SDS011;1643;47.746;9.000;2024-02-23T03:59:22;0.63;;;0.60;;
3261;SDS011;1643;47.746;9.000;2024-02-23T04:01:48;6.60;;;1.03;;
3261;SDS011;1643;47.746;9.000;2024-02-23T04:04:14;1.40;;;0.90;;
3261;SDS011;1643;47.746;9.000;2024-02-23T04:06:40;0.60;;;0.60;;
3261;SDS011;1643;47.746;9.000;2024-02-23T04:09:05;1.10;;;0.80;;
3261;SDS011;1643;47.746;9.000;2024-02-23T04:11:32;0.80;;;0.70;;
3261;SDS011;1643;47.746;9.000;2024-02-23T04:13:57;0.90;;;0.70;;
3261;SDS011;1643;47.746;9.000;2024-02-23T04:16:23;0.70;;;0.70;;
3261;SDS011;1643;47.746;9.000;2024-02-23T04:18:50;0.70;;;0.60;;
3261;SDS011;1643;47.746;9.000;2024-02-23T04:21:16;1.10;;;0.80;;
3261;SDS011;1643;47.746;9.000;2024-02-23T04:23:42;1.37;;;1.00;;
3261;SDS011;1643;47.746;9.000;2024-02-23T04:26:08;0.63;;;0.63;;
3261;SDS011;1643;47.746;9.000;2024-02-23T04:28:34;0.70;;;0.70;;
3261;SDS011;1643;47.746;9.000;2024-02-23T04:31:02;0.73;;;0.60;;
3261;SDS011;1643;47.746;9.000;2024-02-23T04:33:28;0.90;;;0.77;;
3261;SDS011;1643;47.746;9.000;2024-02-23T04:35:53;1.00;;;0.70;;
3261;SDS011;1643;47.746;9.000;2024-02-23T04:38:19;0.70;;;0.70;;
3261;SDS011;1643;47.746;9.000;2024-02-23T04:40:45;0.60;;;0.60;;
3261;SDS011;1643;47.746;9.000;2024-02-23T04:43:10;1.37;;;0.73;;
3261;SDS011;1643;47.746;9.000;2024-02-23T04:45:36;0.67;;;0.67;;
3261;SDS011;1643;47.746;9.000;2024-02-23T04:48:01;1.00;;;0.73;;
3261;SDS011;1643;47.746;9.000;2024-02-23T04:50:28;2.50;;;0.80;;
3261;SDS011;1643;47.746;9.000;2024-02-23T04:52:54;1.10;;;0.80;;
3261;SDS011;1643;47.746;9.000;2024-02-23T04:55:20;0.90;;;0.70;;
3261;SDS011;1643;47.746;9.000;2024-02-23T04:57:45;2.90;;;0.80;;
3261;SDS011;1643;47.746;9.000;2024-02-23T05:00:11;1.70;;;0.80;;
3261;SDS011;1643;47.746;9.000;2024-02-23T05:02:37;0.87;;;0.87;;
3261;SDS011;1643;47.746;9.000;2024-02-23T05:05:03;1.03;;;0.80;;
3261;SDS011;1643;47.746;9.000;2024-02-23T05:07:32;0.90;;;0.70;;
3261;SDS011;1643;47.746;9.000;2024-02-23T05:09:59;0.83;;;0.83;;
3261;SDS011;1643;47.746;9.000;2024-02-23T05:12:24;1.83;;;1.00;;
3261;SDS011;1643;47.746;9.000;2024-02-23T05:14:51;1.73;;;0.90;;
3261;SDS011;1643;47.746;9.000;2024-02-23T05:17:16;0.93;;;0.80;;
3261;SDS011;1643;47.746;9.000;2024-02-23T05:19:42;1.10;;;0.97;;
3261;SDS011;1643;47.746;9.000;2024-02-23T05:22:08;1.00;;;0.80;;
3261;SDS011;1643;47.746;9.000;2024-02-23T05:24:34;1.23;;;1.00;;
3261;SDS011;1643;47.746;9.000;2024-02-23T05:26:59;1.67;;;0.90;;
3261;SDS011;1643;47.746;9.000;2024-02-23T05:29:27;1.37;;;0.80;;
3261;SDS011;1643;47.746;9.000;2024-02-23T05:31:53;2.40;;;0.93;;
3261;SDS011;1643;47.746;9.000;2024-02-23T05:34:18;0.97;;;0.90;;
3261;SDS011;1643;47.746;9.000;2024-02-23T05:36:45;1.80;;;0.70;;
3261;SDS011;1643;47.746;9.000;2024-02-23T05:39:12;2.60;;;1.03;;
3261;SDS011;1643;47.746;9.000;2024-02-23T05:41:38;0.67;;;0.67;;
3261;SDS011;1643;47.746;9.000;2024-02-23T05:44:04;1.60;;;1.00;;
3261;SDS011;1643;47.746;9.000;2024-02-23T05:46:34;4.77;;;0.80;;
3261;SDS011;1643;47.746;9.000;2024-02-23T05:49:00;2.73;;;1.10;;
3261;SDS011;1643;47.746;9.000;2024-02-23T05:51:27;4.67;;;1.00;;
3261;SDS011;1643;47.746;9.000;2024-02-23T05:53:56;2.40;;;1.40;;
3261;SDS011;1643;47.746;9.000;2024-02-23T05:56:22;1.33;;;0.70;;
3261;SDS011;1643;47.746;9.000;2024-02-23T05:58:51;3.00;;;0.80;;
3261;SDS011;1643;47.746;9.000;2024-02-23T06:01:17;1.80;;;0.80;;
3261;SDS011;1643;47.746;9.000;2024-02-23T06:03:43;1.53;;;0.90;;
3261;SDS011;1643;47.746;9.000;2024-02-23T06:06:10;0.70;;;0.70;;
3261;SDS011;1643;47.746;9.000;2024-02-23T06:08:36;0.70;;;0.70;;
3261;SDS011;1643;47.746;9.000;2024-02-23T06:11:02;1.00;;;0.90;;
3261;SDS011;1643;47.746;9.000;2024-02-23T06:13:29;2.13;;;1.20;;
3261;SDS011;1643;47.746;9.000;2024-02-23T06:15:55;3.43;;;1.00;;
3261;SDS011;1643;47.746;9.000;2024-02-23T06:18:20;1.60;;;1.23;;
3261;SDS011;1643;47.746;9.000;2024-02-23T06:20:46;2.03;;;1.50;;
3261;SDS011;1643;47.746;9.000;2024-02-23T06:23:15;0.90;;;0.90;;
3261;SDS011;1643;47.746;9.000;2024-02-23T06:25:42;1.57;;;0.97;;
3261;SDS011;1643;47.746;9.000;2024-02-23T06:28:08;1.30;;;0.90;;
3261;SDS011;1643;47.746;9.000;2024-02-23T06:30:34;1.37;;;0.90;;
3261;SDS011;1643;47.746;9.000;2024-02-23T06:33:00;1.43;;;0.97;;
3261;SDS011;1643;47.746;9.000;2024-02-23T06:35:25;2.10;;;1.00;;
3261;SDS011;1643;47.746;9.000;2024-02-23T06:37:51;1.97;;;1.03;;
3261;SDS011;1643;47.746;9.000;2024-02-23T06:40:16;3.10;;;0.90;;
3261;SDS011;1643;47.746;9.000;2024-02-23T06:42:43;2.70;;;0.90;;
3261;SDS011;1643;47.746;9.000;2024-02-23T06:45:09;2.33;;;1.10;;
3261;SDS011;1643;47.746;9.000;2024-02-23T06:47:34;1.30;;;1.13;;
3261;SDS011;1643;47.746;9.000;2024-02-23T06:50:00;3.50;;;1.10;;
3261;SDS011;1643;47.746;9.000;2024-02-23T06:52:26;6.23;;;1.23;;
3261;SDS011;1643;47.746;9.000;2024-02-23T06:54:52;1.70;;;0.93;;
3261;SDS011;1643;47.746;9.000;2024-02-23T06:57:17;2.50;;;1.40;;
3261;SDS011;1643;47.746;9.000;2024-02-23T06:59:43;1.43;;;1.30;;
3261;SDS011;1643;47.746;9.000;2024-02-23T07:02:09;1.57;;;1.17;;
3261;SDS011;1643;47.746;9.000;2024-02-23T07:04:35;1.23;;;1.00;;
3261;SDS011;1643;47.746;9.000;2024-02-23T07:07:00;2.20;;;1.10;;
3261;SDS011;1643;47.746;9.000;2024-02-23T07:09:32;3.33;;;1.47;;
3261;SDS011;1643;47.746;9.000;2024-02-23T07:11:58;3.47;;;1.13;;
3261;SDS011;1643;47.746;9.000;2024-02-23T07:14:23;1.60;;;1.00;;
3261;SDS011;1643;47.746;9.000;2024-02-23T07:16:49;1.23;;;1.00;;
3261;SDS011;1643;47.746;9.000;2024-02-23T07:19:16;1.47;;;1.20;;
3261;SDS011;1643;47.746;9.000;2024-02-23T07:21:42;1.70;;;1.13;;
3261;SDS011;1643;47.746;9.000;2024-02-23T07:24:07;1.60;;;1.10;;
3261;SDS011;1643;47.746;9.000;2024-02-23T07:26:33;0.93;;;0.93;;
3261;SDS011;1643;47.746;9.000;2024-02-23T07:28:59;1.37;;;1.10;;
3261;SDS011;1643;47.746;9.000;2024-02-23T07:31:24;4.20;;;1.10;;
3261;SDS011;1643;47.746;9.000;2024-02-23T07:33:50;1.00;;;0.90;;
3261;SDS011;1643;47.746;9.000;2024-02-23T07:36:16;1.43;;;1.20;;
3261;SDS011;1643;47.746;9.000;2024-02-23T07:38:42;8.50;;;1.10;;
3261;SDS011;1643;47.746;9.000;2024-02-23T07:41:11;2.23;;;1.20;;
3261;SDS011;1643;47.746;9.000;2024-02-23T07:43:38;3.57;;;1.10;;
3261;SDS011;1643;47.746;9.000;2024-02-23T07:46:04;1.10;;;1.00;;
3261;SDS011;1643;47.746;9.000;2024-02-23T07:48:33;10.27;;;1.10;;
3261;SDS011;1643;47.746;9.000;2024-02-23T07:50:59;1.53;;;0.97;;
3261;SDS011;1643;47.746;9.000;2024-02-23T07:53:24;1.20;;;0.87;;
3261;SDS011;1643;47.746;9.000;2024-02-23T07:55:50;5.27;;;0.90;;
3261;SDS011;1643;47.746;9.000;2024-02-23T07:58:16;1.57;;;1.00;;
3261;SDS011;1643;47.746;9.000;2024-02-23T08:00:41;2.03;;;1.23;;
3261;SDS011;1643;47.746;9.000;2024-02-23T08:03:07;1.77;;;1.10;;
3261;SDS011;1643;47.746;9.000;2024-02-23T08:05:33;1.37;;;1.00;;
3261;SDS011;1643;47.746;9.000;2024-02-23T08:07:59;1.53;;;0.90;;
3261;SDS011;1643;47.746;9.000;2024-02-23T08:10:25;2.50;;;1.00;;
3261;SDS011;1643;47.746;9.000;2024-02-23T08:12:50;1.90;;;0.90;;
3261;SDS011;1643;47.746;9.000;2024-02-23T08:15:16;1.43;;;1.00;;
3261;SDS011;1643;47.746;9.000;2024-02-23T08:17:42;2.20;;;1.17;;
3261;SDS011;1643;47.746;9.000;2024-02-23T08:20:07;1.57;;;1.13;;
3261;SDS011;1643;47.746;9.000;2024-02-23T08:22:33;2.83;;;1.40;;
3261;SDS011;1643;47.746;9.000;2024-02-23T08:24:59;3.07;;;1.07;;
3261;SDS011;1643;47.746;9.000;2024-02-23T08:27:25;1.83;;;1.30;;
3261;SDS011;1643;47.746;9.000;2024-02-23T08:29:50;1.63;;;1.20;;
3261;SDS011;1643;47.746;9.000;2024-02-23T08:32:16;3.37;;;1.00;;
3261;SDS011;1643;47.746;9.000;2024-02-23T08:34:42;1.50;;;1.00;;
3261;SDS011;1643;47.746;9.000;2024-02-23T08:37:08;9.20;;;1.43;;
3261;SDS011;1643;47.746;9.000;2024-02-23T08:39:34;2.23;;;1.13;;
3261;SDS011;1643;47.746;9.000;2024-02-23T08:42:02;2.20;;;1.20;;
3261;SDS011;1643;47.746;9.000;2024-02-23T08:44:28;1.97;;;1.03;;
3261;SDS011;1643;47.746;9.000;2024-02-23T08:46:54;2.70;;;1.30;;
3261;SDS011;1643;47.746;9.000;2024-02-23T08:49:19;1.20;;;1.00;;
3261;SDS011;1643;47.746;9.000;2024-02-23T08:51:45;2.23;;;1.10;;
3261;SDS011;1643;47.746;9.000;2024-02-23T08:54:10;12.53;;;1.43;;
3261;SDS011;1643;47.746;9.000;2024-02-23T08:56:39;5.40;;;1.00;;
3261;SDS011;1643;47.746;9.000;2024-02-23T08:59:07;1.10;;;0.70;;
3261;SDS011;1643;47.746;9.000;2024-02-23T09:01:34;2.30;;;1.00;;
3261;SDS011;1643;47.746;9.000;2024-02-23T09:04:00;1.67;;;0.93;;
3261;SDS011;1643;47.746;9.000;2024-02-23T09:06:25;1.73;;;1.10;;
3261;SDS011;1643;47.746;9.000;2024-02-23T09:08:51;1.27;;;0.90;;
3261;SDS011;1643;47.746;9.000;2024-02-23T09:11:17;1.03;;;0.80;;
3261;SDS011;1643;47.746;9.000;2024-02-23T09:13:42;1.90;;;0.90;;
3261;SDS011;1643;47.746;9.000;2024-02-23T09:16:08;0.97;;;0.83;;
3261;SDS011;1643;47.746;9.000;2024-02-23T09:18:34;2.03;;;0.93;;
3261;SDS011;1643;47.746;9.000;2024-02-23T09:21:00;1.70;;;1.10;;
3261;SDS011;1643;47.746;9.000;2024-02-23T09:23:26;1.27;;;1.17;;
3261;SDS011;1643;47.746;9.000;2024-02-23T09:25:51;1.60;;;1.10;;
3261;SDS011;1643;47.746;9.000;2024-02-23T09:28:17;1.80;;;1.67;;
3261;SDS011;1643;47.746;9.000;2024-02-23T09:30:43;1.67;;;1.10;;
3261;SDS011;1643;47.746;9.000;2024-02-23T09:33:08;2.17;;;1.73;;
3261;SDS011;1643;47.746;9.000;2024-02-23T09:35:34;4.03;;;2.80;;
3261;SDS011;1643;47.746;9.000;2024-02-23T09:38:00;4.03;;;2.13;;
3261;SDS011;1643;47.746;9.000;2024-02-23T09:40:25;1.20;;;1.10;;
3261;SDS011;1643;47.746;9.000;2024-02-23T09:42:55;3.00;;;1.67;;
3261;SDS011;1643;47.746;9.000;2024-02-23T09:45:25;3.17;;;1.70;;
3261;SDS011;1643;47.746;9.000;2024-02-23T09:47:54;1.37;;;1.27;;
3261;SDS011;1643;47.746;9.000;2024-02-23T09:50:22;1.93;;;1.40;;
3261;SDS011;1643;47.746;9.000;2024-02-23T09:52:49;1.63;;;1.30;;
3261;SDS011;1643;47.746;9.000;2024-02-23T09:55:21;1.43;;;1.33;;
3261;SDS011;1643;47.746;9.000;2024-02-23T09:57:48;4.43;;;1.57;;
3261;SDS011;1643;47.746;9.000;2024-02-23T10:00:17;2.10;;;1.40;;
3261;SDS011;1643;47.746;9.000;2024-02-23T10:02:43;2.57;;;1.03;;
3261;SDS011;1643;47.746;9.000;2024-02-23T10:05:10;1.00;;;0.90;;
3261;SDS011;1643;47.746;9.000;2024-02-23T10:07:37;2.33;;;1.40;;
3261;SDS011;1643;47.746;9.000;2024-02-23T10:10:06;2.93;;;1.00;;
3261;SDS011;1643;47.746;9.000;2024-02-23T10:12:33;2.57;;;1.63;;
3261;SDS011;1643;47.746;9.000;2024-02-23T10:14:59;2.00;;;1.40;;
3261;SDS011;1643;47.746;9.000;2024-02-23T10:17:24;2.43;;;1.37;;
3261;SDS011;1643;47.746;9.000;2024-02-23T10:19:51;2.80;;;1.10;;
3261;SDS011;1643;47.746;9.000;2024-02-23T10:22:16;1.20;;;0.90;;
3261;SDS011;1643;47.746;9.000;2024-02-23T10:24:42;1.43;;;0.93;;
3261;SDS011;1643;47.746;9.000;2024-02-23T10:27:08;1.40;;;1.10;;
3261;SDS011;1643;47.746;9.000;2024-02-23T10:29:34;2.33;;;1.17;;
3261;SDS011;1643;47.746;9.000;2024-02-23T10:32:00;2.77;;;1.37;;
3261;SDS011;1643;47.746;9.000;2024-02-23T10:34:26;2.43;;;1.90;;
3261;SDS011;1643;47.746;9.000;2024-02-23T10:36:54;3.03;;;2.10;;
3261;SDS011;1643;47.746;9.000;2024-02-23T10:39:21;4.37;;;1.50;;
3261;SDS011;1643;47.746;9.000;2024-02-23T10:41:59;1.10;;;1.00;;
3261;SDS011;1643;47.746;9.000;2024-02-23T10:44:28;4.30;;;1.20;;
3261;SDS011;1643;47.746;9.000;2024-02-23T10:46:54;2.43;;;1.10;;
3261;SDS011;1643;47.746;9.000;2024-02-23T10:49:20;2.50;;;1.30;;
3261;SDS011;1643;47.746;9.000;2024-02-23T10:51:51;2.70;;;1.00;;
3261;SDS011;1643;47.746;9.000;2024-02-23T10:54:17;2.00;;;1.27;;
3261;SDS011;1643;47.746;9.000;2024-02-23T10:56:52;2.47;;;1.00;;
3261;SDS011;1643;47.746;9.000;2024-02-23T10:59:18;1.80;;;1.20;;
3261;SDS011;1643;47.746;9.000;2024-02-23T11:01:48;1.80;;;1.10;;
3261;SDS011;1643;47.746;9.000;2024-02-23T11:04:16;3.10;;;1.73;;
3261;SDS011;1643;47.746;9.000;2024-02-23T11:06:42;2.30;;;1.50;;
3261;SDS011;1643;47.746;9.000;2024-02-23T11:09:20;4.30;;;1.90;;
3261;SDS011;1643;47.746;9.000;2024-02-23T11:11:55;4.20;;;1.40;;
3261;SDS011;1643;47.746;9.000;2024-02-23T11:14:34;1.53;;;1.30;;
3261;SDS011;1643;47.746;9.000;2024-02-23T11:17:04;2.17;;;1.03;;
3261;SDS011;1643;47.746;9.000;2024-02-23T11:19:37;1.53;;;1.23;;
3261;SDS011;1643;47.746;9.000;2024-02-23T11:22:05;1.60;;;1.07;;
3261;SDS011;1643;47.746;9.000;2024-02-23T11:24:34;1.17;;;1.00;;
3261;SDS011;1643;47.746;9.000;2024-02-23T11:27:00;1.90;;;0.83;;
3261;SDS011;1643;47.746;9.000;2024-02-23T11:29:33;2.77;;;1.30;;
3261;SDS011;1643;47.746;9.000;2024-02-23T11:31:59;5.00;;;1.80;;
3261;SDS011;1643;47.746;9.000;2024-02-23T11:34:29;5.90;;;2.80;;
3261;SDS011;1643;47.746;9.000;2024-02-23T11:36:55;2.67;;;1.97;;
3261;SDS011;1643;47.746;9.000;2024-02-23T11:39:23;16.20;;;6.80;;
3261;SDS011;1643;47.746;9.000;2024-02-23T11:41:51;17.97;;;7.73;;
3261;SDS011;1643;47.746;9.000;2024-02-23T11:44:16;10.40;;;5.03;;
3261;SDS011;1643;47.746;9.000;2024-02-23T11:46:46;5.80;;;3.17;;
3261;SDS011;1643;47.746;9.000;2024-02-23T11:49:12;9.80;;;4.77;;
3261;SDS011;1643;47.746;9.000;2024-02-23T11:51:39;8.60;;;3.13;;
3261;SDS011;1643;47.746;9.000;2024-02-23T11:54:05;2.90;;;2.40;;
3261;SDS011;1643;47.746;9.000;2024-02-23T11:56:31;2.80;;;1.53;;
3261;SDS011;1643;47.746;9.000;2024-02-23T11:58:57;2.97;;;1.63;;
3261;SDS011;1643;47.746;9.000;2024-02-23T12:01:23;2.70;;;2.43;;
3261;SDS011;1643;47.746;9.000;2024-02-23T12:03:48;3.03;;;1.40;;
3261;SDS011;1643;47.746;9.000;2024-02-23T12:06:14;2.10;;;1.50;;
3261;SDS011;1643;47.746;9.000;2024-02-23T12:08:43;2.20;;;1.37;;
3261;SDS011;1643;47.746;9.000;2024-02-23T12:11:10;1.43;;;1.20;;
3261;SDS011;1643;47.746;9.000;2024-02-23T12:13:36;2.10;;;1.07;;
3261;SDS011;1643;47.746;9.000;2024-02-23T12:16:03;4.63;;;1.43;;
3261;SDS011;1643;47.746;9.000;2024-02-23T12:18:29;5.13;;;1.13;;
3261;SDS011;1643;47.746;9.000;2024-02-23T12:23:41;2.10;;;1.30;;
3261;SDS011;1643;47.746;9.000;2024-02-23T12:26:08;1.83;;;0.93;;
3261;SDS011;1643;47.746;9.000;2024-02-23T12:28:35;7.23;;;1.00;;
3261;SDS011;1643;47.746;9.000;2024-02-23T12:31:02;6.60;;;1.40;;
3261;SDS011;1643;47.746;9.000;2024-02-23T12:33:32;2.30;;;1.10;;
3261;SDS011;1643;47.746;9.000;2024-02-23T12:36:03;1.03;;;0.90;;
3261;SDS011;1643;47.746;9.000;2024-02-23T12:38:29;1.50;;;1.23;;
3261;SDS011;1643;47.746;9.000;2024-02-23T12:40:55;2.47;;;1.37;;
3261;SDS011;1643;47.746;9.000;2024-02-23T12:43:22;1.37;;;0.80;;
3261;SDS011;1643;47.746;9.000;2024-02-23T12:45:50;1.47;;;1.13;;
3261;SDS011;1643;47.746;9.000;2024-02-23T12:48:16;3.33;;;1.40;;
3261;SDS011;1643;47.746;9.000;2024-02-23T12:50:42;1.10;;;0.90;;
3261;SDS011;1643;47.746;9.000;2024-02-23T12:53:10;1.40;;;0.93;;
3261;SDS011;1643;47.746;9.000;2024-02-23T12:55:56;2.30;;;1.03;;
3261;SDS011;1643;47.746;9.000;2024-02-23T12:58:22;3.63;;;1.10;;
3261;SDS011;1643;47.746;9.000;2024-02-23T13:00:47;1.63;;;1.00;;
3261;SDS011;1643;47.746;9.000;2024-02-23T13:03:13;1.03;;;0.93;;
3261;SDS011;1643;47.746;9.000;2024-02-23T13:05:39;1.07;;;0.80;;
3261;SDS011;1643;47.746;9.000;2024-02-23T13:08:04;1.37;;;1.10;;
3261;SDS011;1643;47.746;9.000;2024-02-23T13:10:30;6.50;;;1.20;;
3261;SDS011;1643;47.746;9.000;2024-02-23T13:12:56;1.87;;;1.10;;
3261;SDS011;1643;47.746;9.000;2024-02-23T13:15:22;1.23;;;1.00;;
3261;SDS011;1643;47.746;9.000;2024-02-23T13:17:47;2.53;;;1.33;;
3261;SDS011;1643;47.746;9.000;2024-02-23T13:20:16;1.40;;;1.20;;
3261;SDS011;1643;47.746;9.000;2024-02-23T13:22:42;2.70;;;1.40;;
3261;SDS011;1643;47.746;9.000;2024-02-23T13:25:07;3.60;;;1.20;;
3261;SDS011;1643;47.746;9.000;2024-02-23T13:27:33;1.20;;;1.00;;
3261;SDS011;1643;47.746;9.000;2024-02-23T13:29:59;1.30;;;1.17;;
3261;SDS011;1643;47.746;9.000;2024-02-23T13:32:24;2.30;;;1.23;;
3261;SDS011;1643;47.746;9.000;2024-02-23T13:34:50;2.40;;;1.03;;
3261;SDS011;1643;47.746;9.000;2024-02-23T13:37:17;3.43;;;1.07;;
3261;SDS011;1643;47.746;9.000;2024-02-23T13:39:43;4.50;;;1.20;;
3261;SDS011;1643;47.746;9.000;2024-02-23T13:42:09;1.00;;;0.90;;
3261;SDS011;1643;47.746;9.000;2024-02-23T13:44:35;1.20;;;1.10;;
3261;SDS011;1643;47.746;9.000;2024-02-23T13:47:01;6.83;;;1.33;;
3261;SDS011;1643;47.746;9.000;2024-02-23T13:49:27;6.50;;;1.60;;
3261;SDS011;1643;47.746;9.000;2024-02-23T13:51:53;1.93;;;1.17;;
3261;SDS011;1643;47.746;9.000;2024-02-23T13:54:20;2.73;;;0.97;;
3261;SDS011;1643;47.746;9.000;2024-02-23T13:56:45;3.97;;;1.07;;
3261;SDS011;1643;47.746;9.000;2024-02-23T13:59:12;4.33;;;1.20;;
3261;SDS011;1643;47.746;9.000;2024-02-23T14:01:38;1.53;;;1.23;;
3261;SDS011;1643;47.746;9.000;2024-02-23T14:04:07;0.90;;;0.90;;
3261;SDS011;1643;47.746;9.000;2024-02-23T14:06:35;1.10;;;1.00;;
3261;SDS011;1643;47.746;9.000;2024-02-23T14:09:01;2.00;;;0.90;;
3261;SDS011;1643;47.746;9.000;2024-02-23T14:11:28;1.70;;;1.20;;
3261;SDS011;1643;47.746;9.000;2024-02-23T14:13:54;1.10;;;1.00;;
3261;SDS011;1643;47.746;9.000;2024-02-23T14:16:21;1.33;;;1.17;;
3261;SDS011;1643;47.746;9.000;2024-02-23T14:18:48;3.07;;;1.13;;
3261;SDS011;1643;47.746;9.000;2024-02-23T14:21:14;4.10;;;1.10;;
3261;SDS011;1643;47.746;9.000;2024-02-23T14:23:41;3.27;;;0.90;;
3261;SDS011;1643;47.746;9.000;2024-02-23T14:26:07;5.50;;;1.40;;
3261;SDS011;1643;47.746;9.000;2024-02-23T14:28:34;1.20;;;1.10;;
3261;SDS011;1643;47.746;9.000;2024-02-23T14:31:00;3.43;;;2.03;;
3261;SDS011;1643;47.746;9.000;2024-02-23T14:33:26;1.53;;;1.20;;
3261;SDS011;1643;47.746;9.000;2024-02-23T14:35:51;1.50;;;1.40;;
3261;SDS011;1643;47.746;9.000;2024-02-23T14:38:17;1.03;;;0.93;;
3261;SDS011;1643;47.746;9.000;2024-02-23T14:40:43;1.43;;;1.07;;
3261;SDS011;1643;47.746;9.000;2024-02-23T14:43:09;4.37;;;1.30;;
3261;SDS011;1643;47.746;9.000;2024-02-23T14:45:35;2.83;;;1.23;;
3261;SDS011;1643;47.746;9.000;2024-02-23T14:48:01;5.83;;;1.70;;
3261;SDS011;1643;47.746;9.000;2024-02-23T14:50:27;1.40;;;1.00;;
3261;SDS011;1643;47.746;9.000;2024-02-23T14:52:53;2.10;;;1.20;;
3261;SDS011;1643;47.746;9.000;2024-02-23T14:55:19;1.40;;;1.30;;
3261;SDS011;1643;47.746;9.000;2024-02-23T14:57:45;1.40;;;1.00;;
3261;SDS011;1643;47.746;9.000;2024-02-23T15:00:11;1.40;;;1.20;;
3261;SDS011;1643;47.746;9.000;2024-02-23T15:02:37;1.73;;;1.20;;
3261;SDS011;1643;47.746;9.000;2024-02-23T15:05:04;3.60;;;1.63;;
3261;SDS011;1643;47.746;9.000;2024-02-23T15:07:33;1.47;;;1.23;;
3261;SDS011;1643;47.746;9.000;2024-02-23T15:10:00;2.20;;;1.70;;
3261;SDS011;1643;47.746;9.000;2024-02-23T15:12:30;1.47;;;1.37;;